createdAt,value
2022-10-20T00:01:11.018Z,49.53
2022-10-20T00:03:39.044Z,42.22
2022-10-20T00:06:12.153Z,38.13
2022-10-20T00:08:40.940Z,55.75
2022-10-20T00:11:10.529Z,56.58
2022-10-20T00:13:38.821Z,52.60
2022-10-20T00:16:07.098Z,53.83
2022-10-20T00:18:35.112Z,45.00
2022-10-20T00:21:10.538Z,53.67
2022-10-20T00:23:37.930Z,43.50
2022-10-20T00:26:08.108Z,48.92
2022-10-20T00:28:35.780Z,46.05
2022-10-20T00:31:04.554Z,55.13
2022-10-20T00:33:32.621Z,52.08
2022-10-20T00:36:01.358Z,56.00
2022-10-20T00:38:28.840Z,55.80
2022-10-20T00:40:56.635Z,50.25
2022-10-20T00:43:24.352Z,57.42
2022-10-20T00:45:57.301Z,58.20
2022-10-20T00:48:30.584Z,54.80
2022-10-20T00:50:58.036Z,53.45
2022-10-20T00:53:28.470Z,59.65
2022-10-20T00:55:57.834Z,50.05
2022-10-20T00:58:26.342Z,54.47
2022-10-20T01:00:57.790Z,50.20
2022-10-20T01:03:30.482Z,59.67
2022-10-20T01:05:57.862Z,55.78
2022-10-20T01:08:25.269Z,52.67
2022-10-20T01:11:16.557Z,52.78
2022-10-20T01:14:04.848Z,56.05
2022-10-20T01:17:01.343Z,46.97
2022-10-20T01:19:36.397Z,51.83
2022-10-20T01:22:28.708Z,55.90
2022-10-20T01:25:07.987Z,54.50
2022-10-20T01:27:43.134Z,43.28
2022-10-20T01:30:14.789Z,59.22
2022-10-20T01:33:11.178Z,47.63
2022-10-20T01:35:51.650Z,60.20
2022-10-20T01:38:28.024Z,61.63
2022-10-20T01:41:14.310Z,63.07
2022-10-20T01:43:45.009Z,55.45
2022-10-20T01:46:13.288Z,49.25
2022-10-20T01:48:41.407Z,43.67
2022-10-20T01:51:09.878Z,57.92
2022-10-20T01:53:37.263Z,69.18
2022-10-20T01:56:05.545Z,55.95
2022-10-20T01:59:29.006Z,58.38
2022-10-20T02:02:07.682Z,54.33
2022-10-20T02:05:18.194Z,47.95
2022-10-20T02:07:45.474Z,51.35
2022-10-20T02:10:20.504Z,57.95
2022-10-20T02:12:52.622Z,61.00
2022-10-20T02:15:24.104Z,56.17
2022-10-20T02:17:58.477Z,60.40
2022-10-20T02:20:27.109Z,57.22
2022-10-20T02:22:55.931Z,56.20
2022-10-20T02:25:24.686Z,53.60
2022-10-20T02:27:54.686Z,55.50
2022-10-20T02:30:22.527Z,54.65
2022-10-20T02:32:52.871Z,49.10
2022-10-20T02:35:23.288Z,49.10
2022-10-20T02:37:51.019Z,52.72
2022-10-20T02:40:18.459Z,51.47
2022-10-20T02:42:45.681Z,60.83
2022-10-20T02:45:13.037Z,54.33
2022-10-20T02:47:40.376Z,58.03
2022-10-20T02:50:08.394Z,46.20
2022-10-20T02:52:36.729Z,62.85
2022-10-20T02:55:05.240Z,60.20
2022-10-20T02:57:32.597Z,50.90
2022-10-20T03:00:00.268Z,56.22
2022-10-20T03:02:27.512Z,60.72
2022-10-20T03:04:54.814Z,52.65
2022-10-20T03:07:22.066Z,60.08
2022-10-20T03:09:49.474Z,69.35
2022-10-20T03:12:16.814Z,46.40
2022-10-20T03:14:44.079Z,64.05
2022-10-20T03:17:11.324Z,62.00
2022-10-20T03:19:39.390Z,53.75
2022-10-20T03:22:07.054Z,51.63
2022-10-20T03:24:34.310Z,61.33
2022-10-20T03:27:01.544Z,51.40
2022-10-20T03:29:28.860Z,60.10
2022-10-20T03:31:56.160Z,64.57
2022-10-20T03:34:23.513Z,53.33
2022-10-20T03:36:50.825Z,59.13
2022-10-20T03:39:18.087Z,54.08
2022-10-20T03:41:45.385Z,66.88
2022-10-20T03:44:12.753Z,55.83
2022-10-20T03:46:40.006Z,65.63
2022-10-20T03:49:07.329Z,51.33
2022-10-20T03:51:34.581Z,55.63
2022-10-20T03:54:02.273Z,59.97
2022-10-20T03:56:29.436Z,48.97
2022-10-20T03:58:56.731Z,57.47
2022-10-20T04:01:29.671Z,52.20
2022-10-20T04:03:57.096Z,53.13
2022-10-20T04:06:24.856Z,56.03
2022-10-20T04:08:52.150Z,55.03
2022-10-20T04:11:19.863Z,51.92
2022-10-20T04:13:47.095Z,57.63
2022-10-20T04:16:14.395Z,57.05
2022-10-20T04:18:41.676Z,63.95
2022-10-20T04:21:08.988Z,60.17
2022-10-20T04:23:36.328Z,51.28
2022-10-20T04:26:11.931Z,65.57
2022-10-20T04:28:39.367Z,55.40
2022-10-20T04:31:06.981Z,54.40
2022-10-20T04:33:35.246Z,64.60
2022-10-20T04:36:06.064Z,51.22
2022-10-20T04:38:35.003Z,65.07
2022-10-20T04:41:07.279Z,52.60
2022-10-20T04:43:35.241Z,59.80
2022-10-20T04:46:08.809Z,64.45
2022-10-20T04:48:37.421Z,59.78
2022-10-20T04:51:07.875Z,55.40
2022-10-20T04:53:35.748Z,64.07
2022-10-20T04:56:04.680Z,52.50
2022-10-20T04:58:32.484Z,57.30
2022-10-20T05:01:09.941Z,61.08
2022-10-20T05:03:37.374Z,66.03
2022-10-20T05:06:08.609Z,73.93
2022-10-20T05:08:35.921Z,59.97
2022-10-20T05:11:03.477Z,60.33
2022-10-20T05:13:30.889Z,52.63
2022-10-20T05:15:58.223Z,67.18
2022-10-20T05:18:25.528Z,56.50
2022-10-20T05:21:07.858Z,53.33
2022-10-20T05:23:36.551Z,59.22
2022-10-20T05:26:08.053Z,67.03
2022-10-20T05:28:35.411Z,59.70
2022-10-20T05:31:04.156Z,59.42
2022-10-20T05:33:31.690Z,59.53
2022-10-20T05:35:59.192Z,53.08
2022-10-20T05:38:27.020Z,59.65
2022-10-20T05:40:54.199Z,74.47
2022-10-20T05:43:21.519Z,51.33
2022-10-20T05:45:54.028Z,72.82
2022-10-20T05:48:21.245Z,53.58
2022-10-20T05:50:49.019Z,77.43
2022-10-20T05:53:16.248Z,61.50
2022-10-20T05:55:43.937Z,53.13
2022-10-20T05:58:11.155Z,59.85
2022-10-20T06:00:42.389Z,56.28
2022-10-20T06:03:09.741Z,59.05
2022-10-20T06:05:37.035Z,64.30
2022-10-20T06:08:04.566Z,61.47
2022-10-20T06:10:31.991Z,70.95
2022-10-20T06:12:59.304Z,65.40
2022-10-20T06:15:26.552Z,64.15
2022-10-20T06:17:53.860Z,80.35
2022-10-20T06:20:21.093Z,78.60
2022-10-20T06:22:48.726Z,72.28
2022-10-20T06:25:15.927Z,79.13
2022-10-20T06:27:44.481Z,65.57
2022-10-20T06:30:11.904Z,71.70
2022-10-20T06:32:39.468Z,84.93
2022-10-20T06:35:07.122Z,88.47
2022-10-20T06:37:34.372Z,70.57
2022-10-20T06:40:02.673Z,56.42
2022-10-20T06:42:29.815Z,83.00
2022-10-20T06:44:58.667Z,81.28
2022-10-20T06:47:25.951Z,69.68
2022-10-20T06:49:53.310Z,73.85
2022-10-20T06:52:20.658Z,71.85
2022-10-20T06:54:47.935Z,70.13
2022-10-20T06:57:15.178Z,70.05
2022-10-20T06:59:42.492Z,95.80
2022-10-20T07:02:12.170Z,72.50
2022-10-20T07:04:39.974Z,69.82
2022-10-20T07:07:07.250Z,89.55
2022-10-20T07:09:34.531Z,76.20
2022-10-20T07:12:02.281Z,76.97
2022-10-20T07:14:32.353Z,79.78
2022-10-20T07:16:59.840Z,72.90
2022-10-20T07:19:27.284Z,66.72
2022-10-20T07:21:54.709Z,57.03
2022-10-20T07:24:22.189Z,70.50
2022-10-20T07:26:49.473Z,74.78
2022-10-20T07:29:16.833Z,71.07
2022-10-20T07:31:46.224Z,68.82
2022-10-20T07:34:31.507Z,73.00
2022-10-20T07:36:58.886Z,88.80
2022-10-20T07:39:27.140Z,83.07
2022-10-20T07:41:54.985Z,74.95
2022-10-20T07:44:23.097Z,81.57
2022-10-20T07:46:50.388Z,69.03
2022-10-20T07:52:05.429Z,94.97
2022-10-20T07:54:33.186Z,98.60
2022-10-20T07:57:00.598Z,97.05
2022-10-20T07:59:29.413Z,84.07
2022-10-20T08:01:59.560Z,89.97
2022-10-20T08:04:27.862Z,86.28
2022-10-20T08:06:55.150Z,91.60
2022-10-20T08:09:22.380Z,85.50
2022-10-20T08:11:52.860Z,85.97
2022-10-20T08:14:23.681Z,72.75
2022-10-20T08:16:51.020Z,74.78
2022-10-20T08:19:24.242Z,91.88
2022-10-20T08:21:52.180Z,87.78
2022-10-20T08:24:19.455Z,87.60
2022-10-20T08:26:46.812Z,109.10
2022-10-20T08:29:14.708Z,103.13
2022-10-20T08:31:44.415Z,106.03
2022-10-20T08:34:11.957Z,106.97
2022-10-20T08:36:39.274Z,95.45
2022-10-20T08:39:06.773Z,87.85
2022-10-20T08:41:55.755Z,84.47
2022-10-20T08:44:34.945Z,88.90
2022-10-20T08:47:06.020Z,94.85
2022-10-20T08:49:35.010Z,100.65
2022-10-20T08:52:03.087Z,88.63
2022-10-20T08:54:34.138Z,79.95
2022-10-20T08:57:01.537Z,76.10
2022-10-20T08:59:39.861Z,76.90
2022-10-20T09:02:17.151Z,72.93
2022-10-20T09:04:58.523Z,60.97
2022-10-20T09:07:32.870Z,50.25
2022-10-20T09:10:21.604Z,61.20
2022-10-20T09:12:49.535Z,53.40
2022-10-20T09:15:18.203Z,46.97
2022-10-20T09:18:04.110Z,52.58
2022-10-20T09:20:40.371Z,56.22
2022-10-20T09:23:39.527Z,56.17
2022-10-20T09:26:05.127Z,50.97
2022-10-20T09:28:38.535Z,55.20
2022-10-20T09:31:23.211Z,45.97
2022-10-20T09:33:50.601Z,43.30
2022-10-20T09:36:21.084Z,45.67
2022-10-20T09:38:51.582Z,34.63
2022-10-20T09:41:22.196Z,31.40
2022-10-20T09:43:57.237Z,36.17
2022-10-20T09:46:37.289Z,34.13
2022-10-20T09:49:06.960Z,34.33
2022-10-20T09:51:35.101Z,36.83
2022-10-20T09:54:08.172Z,38.75
2022-10-20T09:56:42.372Z,40.10
2022-10-20T09:59:34.916Z,35.63
2022-10-20T10:02:04.699Z,36.45
2022-10-20T10:04:38.781Z,36.83
2022-10-20T10:07:26.047Z,46.38
2022-10-20T10:09:56.142Z,33.25
2022-10-20T10:12:25.960Z,29.58
2022-10-20T10:14:58.562Z,26.77
2022-10-20T10:17:44.369Z,31.67
2022-10-20T10:20:11.837Z,21.05
2022-10-20T10:22:40.751Z,24.73
2022-10-20T10:25:24.746Z,31.75
2022-10-20T10:28:06.969Z,21.98
2022-10-20T10:30:37.388Z,16.80
2022-10-20T10:33:26.406Z,23.77
2022-10-20T10:35:53.817Z,22.83
2022-10-20T10:38:21.195Z,23.73
2022-10-20T10:41:00.478Z,27.08
2022-10-20T10:43:52.147Z,26.70
2022-10-20T10:46:30.568Z,34.42
2022-10-20T10:49:00.710Z,22.65
2022-10-20T10:51:33.721Z,39.03
2022-10-20T10:54:19.689Z,25.00
2022-10-20T10:56:51.399Z,19.70
2022-10-20T10:59:23.413Z,17.55
2022-10-20T11:02:09.181Z,20.15
2022-10-20T11:05:01.166Z,22.75
2022-10-20T11:07:38.163Z,19.70
2022-10-20T11:10:30.723Z,16.77
2022-10-20T11:13:12.734Z,19.35
2022-10-20T11:16:01.788Z,19.65
2022-10-20T11:18:50.829Z,14.57
2022-10-20T11:21:41.449Z,14.00
2022-10-20T11:24:35.356Z,15.20
2022-10-20T11:27:16.172Z,22.92
2022-10-20T11:29:49.078Z,13.45
2022-10-20T11:32:16.287Z,17.08
2022-10-20T11:34:57.986Z,15.20
2022-10-20T11:37:29.401Z,22.48
2022-10-20T11:40:14.772Z,11.70
2022-10-20T11:43:12.637Z,8.70
2022-10-20T11:45:39.863Z,22.15
2022-10-20T11:48:11.880Z,14.77
2022-10-20T11:50:42.536Z,11.80
2022-10-20T11:53:36.821Z,16.00
2022-10-20T11:56:30.411Z,13.15
2022-10-20T11:59:39.850Z,14.40
2022-10-20T12:02:45.141Z,9.10
2022-10-20T12:05:18.593Z,17.90
2022-10-20T12:08:28.066Z,14.00
2022-10-20T12:10:52.625Z,12.68
2022-10-20T12:13:27.281Z,18.52
2022-10-20T12:15:54.582Z,11.95
2022-10-20T12:18:33.027Z,15.07
2022-10-20T12:21:06.467Z,14.20
2022-10-20T12:23:46.168Z,9.60
2022-10-20T12:26:42.359Z,14.13
2022-10-20T12:29:30.761Z,11.82
2022-10-20T12:32:25.875Z,17.92
2022-10-20T12:35:02.864Z,14.88
2022-10-20T12:37:34.957Z,15.48
2022-10-20T12:40:33.778Z,14.02
2022-10-20T12:45:40.924Z,8.88
2022-10-20T12:48:17.209Z,8.10
2022-10-20T12:50:46.961Z,6.60
2022-10-20T12:53:23.390Z,6.97
2022-10-20T12:56:04.871Z,4.87
2022-10-20T12:58:34.709Z,5.05
2022-10-20T13:01:07.432Z,5.07
2022-10-20T13:03:39.689Z,10.20
2022-10-20T13:06:26.954Z,7.90
2022-10-20T13:09:03.525Z,3.03
2022-10-20T13:11:40.617Z,9.50
2022-10-20T13:14:17.017Z,2.33
2022-10-20T13:17:03.142Z,5.03
2022-10-20T13:19:47.520Z,5.78
2022-10-20T13:22:47.696Z,10.63
2022-10-20T13:25:18.488Z,9.88
2022-10-20T13:27:49.032Z,8.88
2022-10-20T13:30:22.451Z,18.70
2022-10-20T13:33:33.933Z,16.63
2022-10-20T13:36:12.498Z,11.60
2022-10-20T13:38:42.679Z,11.77
2022-10-20T13:41:38.486Z,2.83
2022-10-20T13:44:32.054Z,5.97
2022-10-20T13:47:30.925Z,2.90
2022-10-20T13:50:06.228Z,2.03
2022-10-20T13:52:40.818Z,3.75
2022-10-20T13:55:16.054Z,3.00
2022-10-20T13:57:55.119Z,3.15
2022-10-20T14:00:29.105Z,2.17
2022-10-20T14:03:00.839Z,2.47
2022-10-20T14:05:31.484Z,8.02
2022-10-20T14:08:04.715Z,2.92
2022-10-20T14:10:48.209Z,2.58
2022-10-20T14:13:21.639Z,5.05
2022-10-20T14:15:52.148Z,3.88
2022-10-20T14:18:25.374Z,8.18
2022-10-20T14:21:04.840Z,4.18
2022-10-20T14:23:39.493Z,5.82
2022-10-20T14:26:11.624Z,10.43
2022-10-20T14:28:40.206Z,3.28
2022-10-20T14:31:10.198Z,6.78
2022-10-20T14:33:44.173Z,7.35
2022-10-20T14:36:29.370Z,5.00
2022-10-20T14:39:00.562Z,3.38
2022-10-20T14:41:31.662Z,8.82
2022-10-20T14:44:08.498Z,4.35
2022-10-20T14:46:45.086Z,7.07
2022-10-20T14:49:26.768Z,10.32
2022-10-20T14:52:21.322Z,7.75
2022-10-20T14:54:51.318Z,9.80
2022-10-20T14:57:19.137Z,4.78
2022-10-20T15:00:06.093Z,4.53
2022-10-20T15:02:33.819Z,5.77
2022-10-20T15:05:22.109Z,7.35
2022-10-20T15:07:49.792Z,4.07
2022-10-20T15:10:20.467Z,8.07
2022-10-20T15:12:49.669Z,6.47
2022-10-20T15:15:18.824Z,7.07
2022-10-20T15:17:48.781Z,10.63
2022-10-20T15:20:34.488Z,8.52
2022-10-20T15:23:06.298Z,5.03
2022-10-20T15:25:47.340Z,5.47
2022-10-20T15:28:22.833Z,2.45
2022-10-20T15:30:50.305Z,10.80
2022-10-20T15:33:17.859Z,11.35
2022-10-20T15:35:47.325Z,10.07
2022-10-20T15:38:15.296Z,5.72
2022-10-20T15:40:43.114Z,7.05
2022-10-20T15:43:13.221Z,7.45
2022-10-20T15:45:54.360Z,9.63
2022-10-20T15:48:25.864Z,7.57
2022-10-20T15:50:56.528Z,11.65
2022-10-20T15:53:23.797Z,13.45
2022-10-20T15:55:51.041Z,10.55
2022-10-20T15:58:18.332Z,10.43
2022-10-20T16:00:45.745Z,4.60
2022-10-20T16:03:19.079Z,7.68
2022-10-20T16:05:47.295Z,6.88
2022-10-20T16:10:43.589Z,17.70
2022-10-20T16:13:12.040Z,13.38
2022-10-20T16:15:39.373Z,9.20
2022-10-20T16:18:09.592Z,11.70
2022-10-20T16:20:37.560Z,9.45
2022-10-20T16:23:05.106Z,7.65
2022-10-20T16:25:32.437Z,10.07
2022-10-20T16:27:59.977Z,10.43
2022-10-20T16:30:27.359Z,12.65
2022-10-20T16:32:54.625Z,13.07
2022-10-20T16:35:22.541Z,8.70
2022-10-20T16:37:49.820Z,5.30
2022-10-20T16:40:17.600Z,14.48
2022-10-20T16:42:44.738Z,16.85
2022-10-20T16:45:12.080Z,10.30
2022-10-20T16:47:40.001Z,10.50
2022-10-20T16:50:07.789Z,18.42
2022-10-20T16:52:35.187Z,14.82
2022-10-20T16:55:02.606Z,14.20
2022-10-20T16:57:33.474Z,11.68
2022-10-20T17:00:00.778Z,6.65
2022-10-20T17:02:28.142Z,5.97
2022-10-20T17:04:55.403Z,6.53
2022-10-20T17:07:22.746Z,9.98
2022-10-20T17:09:50.022Z,10.82
2022-10-20T17:12:17.401Z,6.68
2022-10-20T17:14:44.808Z,20.15
2022-10-20T17:17:12.127Z,11.10
2022-10-20T17:19:41.305Z,10.02
2022-10-20T17:24:38.247Z,7.38
2022-10-20T17:27:05.775Z,11.05
2022-10-20T17:29:33.101Z,10.35
2022-10-20T17:32:00.494Z,12.07
2022-10-20T17:34:27.710Z,14.18
2022-10-20T17:36:54.987Z,10.13
2022-10-20T17:39:24.003Z,9.00
2022-10-20T17:41:51.306Z,4.68
2022-10-20T17:44:18.525Z,3.17
2022-10-20T17:46:45.805Z,9.48
2022-10-20T17:49:13.087Z,15.52
2022-10-20T17:51:40.448Z,18.58
2022-10-20T17:54:07.827Z,15.65
2022-10-20T17:56:37.018Z,13.25
2022-10-20T17:59:07.416Z,12.65
2022-10-20T18:01:38.376Z,9.45
2022-10-20T18:04:08.900Z,18.73
2022-10-20T18:06:36.830Z,8.43
2022-10-20T18:09:07.546Z,15.82
2022-10-20T18:11:35.790Z,13.18
2022-10-20T18:14:04.084Z,6.72
2022-10-20T18:16:33.341Z,16.38
2022-10-20T18:19:01.256Z,14.43
2022-10-20T18:21:30.112Z,12.70
2022-10-20T18:24:02.081Z,8.85
2022-10-20T18:26:30.463Z,13.13
2022-10-20T18:28:59.594Z,20.58
2022-10-20T18:31:30.305Z,8.80
2022-10-20T18:34:04.435Z,8.40
2022-10-20T18:36:36.922Z,12.27
2022-10-20T18:39:07.906Z,13.00
2022-10-20T18:41:38.279Z,12.68
2022-10-20T18:44:10.759Z,13.35
2022-10-20T18:46:39.217Z,15.95
2022-10-20T18:49:07.993Z,28.70
2022-10-20T18:51:36.352Z,13.57
2022-10-20T18:54:05.977Z,11.63
2022-10-20T18:56:34.027Z,22.05
2022-10-20T18:59:04.209Z,13.65
2022-10-20T19:01:35.029Z,24.63
2022-10-20T19:04:03.252Z,14.15
2022-10-20T19:06:32.902Z,12.23
2022-10-20T19:09:02.587Z,20.10
2022-10-20T19:11:32.618Z,8.13
2022-10-20T19:14:00.651Z,11.52
2022-10-20T19:16:31.039Z,12.38
2022-10-20T19:19:00.321Z,15.40
2022-10-20T19:21:28.980Z,19.55
2022-10-20T19:24:06.111Z,14.52
2022-10-20T19:26:39.773Z,24.88
2022-10-20T19:29:14.121Z,20.40
2022-10-20T19:31:47.264Z,9.13
2022-10-20T19:34:27.577Z,12.73
2022-10-20T19:36:55.926Z,11.45
2022-10-20T19:39:27.148Z,16.35
2022-10-20T19:41:56.182Z,13.00
2022-10-20T19:44:23.745Z,10.80
2022-10-20T19:46:52.061Z,14.38
2022-10-20T19:49:20.846Z,19.98
2022-10-20T19:51:48.467Z,11.63
2022-10-20T19:54:16.003Z,13.13
2022-10-20T19:56:43.685Z,21.00
2022-10-20T19:59:11.723Z,18.40
2022-10-20T20:01:39.110Z,19.88
2022-10-20T20:04:06.669Z,19.02
2022-10-20T20:06:34.918Z,13.85
2022-10-20T20:09:06.931Z,15.20
2022-10-20T20:11:36.501Z,26.50
2022-10-20T20:14:11.828Z,18.33
2022-10-20T20:16:41.429Z,22.42
2022-10-20T20:19:09.279Z,16.00
2022-10-20T20:21:36.949Z,10.98
2022-10-20T20:24:04.910Z,11.27
2022-10-20T20:26:34.228Z,9.88
2022-10-20T20:29:02.022Z,10.98
2022-10-20T20:31:30.383Z,14.32
2022-10-20T20:33:57.883Z,10.65
2022-10-20T20:36:27.143Z,17.88
2022-10-20T20:38:57.845Z,15.95
2022-10-20T20:41:27.775Z,19.08
2022-10-20T20:43:55.164Z,14.38
2022-10-20T20:46:24.201Z,19.83
2022-10-20T20:48:51.717Z,9.00
2022-10-20T20:51:19.180Z,16.73
2022-10-20T20:53:46.632Z,19.10
2022-10-20T20:56:20.544Z,9.00
2022-10-20T20:58:51.940Z,14.25
2022-10-20T21:01:27.895Z,14.57
2022-10-20T21:03:56.674Z,17.15
2022-10-20T21:06:33.123Z,15.48
2022-10-20T21:09:01.706Z,13.15
2022-10-20T21:11:29.275Z,12.13
2022-10-20T21:13:58.909Z,8.60
2022-10-20T21:16:31.931Z,17.02
2022-10-20T21:19:06.006Z,17.48
2022-10-20T21:21:35.308Z,17.30
2022-10-20T21:24:03.950Z,13.32
2022-10-20T21:26:32.444Z,14.45
2022-10-20T21:28:59.774Z,10.68
2022-10-20T21:31:28.354Z,13.75
2022-10-20T21:34:00.772Z,18.25
2022-10-20T21:36:29.703Z,24.98
2022-10-20T21:38:58.977Z,16.38
2022-10-20T21:41:32.050Z,19.42
2022-10-20T21:44:00.986Z,20.65
2022-10-20T21:46:50.759Z,18.95
2022-10-20T21:49:20.373Z,16.55
2022-10-20T21:51:50.692Z,18.30
2022-10-20T21:54:28.708Z,22.35
2022-10-20T21:56:56.873Z,22.05
2022-10-20T21:59:29.113Z,23.60
2022-10-20T22:01:58.673Z,26.73
2022-10-20T22:04:28.214Z,14.35
2022-10-20T22:06:56.142Z,13.88
2022-10-20T22:09:23.983Z,21.27
2022-10-20T22:11:55.224Z,9.98
2022-10-20T22:14:23.113Z,16.08
2022-10-20T22:16:51.059Z,16.88
2022-10-20T22:19:23.030Z,11.23
2022-10-20T22:21:51.631Z,9.60
2022-10-20T22:24:20.581Z,13.75
2022-10-20T22:26:49.157Z,12.98
2022-10-20T22:29:16.472Z,11.48
2022-10-20T22:31:43.878Z,14.82
2022-10-20T22:34:11.916Z,11.68
2022-10-20T22:36:39.669Z,17.65
2022-10-20T22:39:07.891Z,17.15
2022-10-20T22:41:35.754Z,13.27
2022-10-20T22:44:03.199Z,24.15
2022-10-20T22:46:30.544Z,15.48
2022-10-20T22:51:26.301Z,17.98
2022-10-20T22:53:53.796Z,15.07
2022-10-20T22:56:22.560Z,18.70
2022-10-20T22:58:52.946Z,17.55
2022-10-20T23:01:22.546Z,18.63
2022-10-20T23:03:50.594Z,13.15
2022-10-20T23:06:22.000Z,24.67
2022-10-20T23:08:52.007Z,22.85
2022-10-20T23:11:20.298Z,20.52
2022-10-20T23:13:48.329Z,18.80
2022-10-20T23:16:15.828Z,20.98
2022-10-20T23:18:43.594Z,29.10
2022-10-20T23:21:13.104Z,22.48
2022-10-20T23:23:40.756Z,21.40
2022-10-20T23:26:08.410Z,12.93
2022-10-20T23:28:37.096Z,12.70
2022-10-20T23:31:15.960Z,20.90
2022-10-20T23:33:44.914Z,18.90
2022-10-20T23:36:13.525Z,16.80
2022-10-20T23:38:41.672Z,16.25
2022-10-20T23:41:09.307Z,14.95
2022-10-20T23:46:09.401Z,21.65
2022-10-20T23:48:37.042Z,25.42
2022-10-20T23:51:05.882Z,18.45
2022-10-20T23:53:33.618Z,14.77
2022-10-20T23:56:01.046Z,16.73
2022-10-20T23:58:28.489Z,22.17
